Time;durP1;ratioP1;P1;durP2;ratioP2;P2;SDS_P1;SDS_P2;PMS_P1;PMS_P2;Temp;Humidity;BMP_temperature;BMP_pressure;BME280_temperature;BME280_humidity;BME280_pressure;Samples;Min_cycle;Max_cycle;Signal;HPM_P1;HPM_P2
2022/07/12 00:01:48;;;;;;;1.75;1.27;;;;;;;23.02;30.56;99694.56;5014470;28;20032;-89
2022/07/12 00:04:13;;;;;;;2.53;1.15;;;;;;;23.34;30.69;99749.28;5014288;28;20041;-89
2022/07/12 00:06:39;;;;;;;3.30;1.45;;;;;;;22.81;30.60;99670.13;5014352;28;20026;-89
2022/07/12 00:09:04;;;;;;;2.05;1.20;;;;;;;23.33;30.75;99761.13;5014983;28;20033;-89
2022/07/12 00:11:30;;;;;;;3.60;1.42;;;;;;;23.67;30.84;99809.41;5014961;28;20052;-89
2022/07/12 00:13:56;;;;;;;1.17;1.02;;;;;;;23.37;30.83;99759.53;5014879;28;20053;-89
2022/07/12 00:16:22;;;;;;;2.35;1.48;;;;;;;23.65;30.72;99819.63;5014959;28;20033;-90
2022/07/12 00:18:48;;;;;;;1.70;1.50;;;;;;;23.15;30.58;99745.34;5013990;28;20017;-89
2022/07/12 00:21:14;;;;;;;2.20;1.17;;;;;;;23.26;30.82;99775.88;5014121;28;20037;-89
2022/07/12 00:23:39;;;;;;;2.05;1.40;;;;;;;21.77;31.15;99589.56;5013767;28;20041;-89
2022/07/12 00:26:05;;;;;;;3.15;1.20;;;;;;;22.76;30.84;99720.38;5027881;28;20038;-89
2022/07/12 00:28:31;;;;;;;2.92;1.30;;;;;;;22.12;31.06;99634.09;5036141;28;20034;-90
2022/07/12 00:30:57;;;;;;;1.85;1.40;;;;;;;22.73;31.25;99740.56;5033350;28;20049;-88
2022/07/12 00:33:23;;;;;;;3.42;1.70;;;;;;;23.04;31.21;99784.81;5016946;28;20024;-89
2022/07/12 00:35:49;;;;;;;2.10;1.50;;;;;;;23.06;31.14;99793.47;5019000;28;20030;-89
2022/07/12 00:38:14;;;;;;;1.80;1.45;;;;;;;22.86;31.28;99773.56;5014269;28;20025;-89
2022/07/12 00:40:40;;;;;;;2.03;1.30;;;;;;;22.86;31.33;99752.03;5013506;28;20026;-90
2022/07/12 00:43:05;;;;;;;1.73;1.35;;;;;;;22.43;31.43;99700.66;5013833;28;20026;-88
2022/07/12 00:45:31;;;;;;;2.08;1.13;;;;;;;22.52;31.46;99752.97;5013675;28;20056;-89
2022/07/12 00:47:57;;;;;;;2.47;1.20;;;;;;;23.01;31.59;99816.81;5014251;28;20022;-90
2022/07/12 00:50:23;;;;;;;1.42;1.10;;;;;;;22.93;31.76;99812.69;5013796;28;20033;-89
2022/07/12 00:52:51;;;;;;;3.25;1.45;;;;;;;22.65;31.75;99767.09;5013269;28;20022;-90
2022/07/12 00:55:18;;;;;;;3.08;1.38;;;;;;;22.47;31.74;99750.22;5013405;28;20088;-89
2022/07/12 00:57:44;;;;;;;1.40;1.23;;;;;;;22.04;31.67;99673.00;5014837;28;20046;-89
2022/07/12 01:00:12;;;;;;;2.45;1.50;;;;;;;22.31;31.84;99739.50;5013314;28;20038;-90
2022/07/12 01:02:38;;;;;;;4.20;1.70;;;;;;;22.80;31.77;99802.31;5013383;28;20025;-89
2022/07/12 01:05:05;;;;;;;2.25;1.30;;;;;;;22.73;31.84;99805.16;5019816;28;20089;-90
2022/07/12 01:07:34;;;;;;;2.05;1.52;;;;;;;21.99;31.83;99691.72;5026937;28;20014;-89
2022/07/12 01:10:00;;;;;;;2.05;1.40;;;;;;;22.01;32.01;99712.97;5033373;28;20026;-89
2022/07/12 01:12:25;;;;;;;2.10;1.50;;;;;;;22.37;32.25;99752.78;5013561;28;20513;-90
2022/07/12 01:14:51;;;;;;;3.80;1.52;;;;;;;22.72;31.98;99800.84;5012886;28;20022;-88
2022/07/12 01:17:22;;;;;;;3.83;1.25;;;;;;;22.51;32.09;99777.44;5012898;28;20032;-89
2022/07/12 01:19:49;;;;;;;1.70;1.45;;;;;;;22.54;32.17;99800.34;5012862;28;20112;-89
2022/07/12 01:22:17;;;;;;;1.60;1.35;;;;;;;22.55;32.10;99802.78;5012972;28;20134;-90
2022/07/12 01:24:43;;;;;;;2.05;1.63;;;;;;;21.83;32.02;99700.63;5013722;28;20057;-89
2022/07/12 01:27:08;;;;;;;2.80;1.30;;;;;;;22.13;32.21;99735.22;5013762;28;20030;-89
2022/07/12 01:29:35;;;;;;;1.65;1.20;;;;;;;22.68;32.45;99820.44;5012605;28;20029;-89
2022/07/12 01:32:24;;;;;;;3.17;1.52;;;;;;;22.34;32.26;99774.81;5012844;28;20022;-89
2022/07/12 01:34:50;;;;;;;2.55;1.50;;;;;;;22.07;32.31;99738.91;5013440;28;20029;-89
2022/07/12 01:37:17;;;;;;;1.98;1.40;;;;;;;21.99;32.27;99712.41;5013582;28;20036;-89
2022/07/12 01:39:43;;;;;;;3.17;1.40;;;;;;;22.34;32.89;99788.25;5012463;28;20057;-90
2022/07/12 01:42:08;;;;;;;1.60;1.33;;;;;;;21.98;32.67;99751.94;5012545;28;20421;-89
2022/07/12 01:44:34;;;;;;;1.80;1.40;;;;;;;22.49;32.83;99831.50;5012487;28;20113;-89
2022/07/12 01:46:59;;;;;;;1.60;1.33;;;;;;;22.17;32.91;99769.44;5012336;28;20103;-89
2022/07/12 01:49:25;;;;;;;1.80;1.70;;;;;;;22.13;33.06;99778.25;5013257;28;20494;-89
2022/07/12 01:51:51;;;;;;;1.90;1.60;;;;;;;21.70;33.11;99726.00;5012323;28;20029;-89
2022/07/12 01:54:16;;;;;;;2.22;1.42;;;;;;;22.32;33.24;99824.53;5012328;28;20118;-88
2022/07/12 01:56:42;;;;;;;3.25;1.70;;;;;;;20.93;33.09;99615.69;5012039;28;20054;-89
2022/07/12 01:59:07;;;;;;;3.00;1.83;;;;;;;21.86;33.27;99770.03;5012133;28;20601;-89
2022/07/12 02:01:33;;;;;;;3.13;1.92;;;;;;;22.17;33.38;99820.53;5012394;28;20026;-89
2022/07/12 02:04:03;;;;;;;3.15;1.65;;;;;;;21.64;33.59;99756.53;5011533;28;20046;-89
2022/07/12 02:06:29;;;;;;;3.38;1.50;;;;;;;21.70;33.58;99760.94;5025105;28;20029;-90
2022/07/12 02:08:55;;;;;;;2.10;1.73;;;;;;;21.56;33.51;99736.25;5028429;28;20073;-89
2022/07/12 02:11:20;;;;;;;1.55;1.35;;;;;;;21.20;33.66;99701.78;5025624;28;20034;-90
2022/07/12 02:13:46;;;;;;;2.58;1.60;;;;;;;21.21;33.58;99711.47;5014797;28;20487;-90
2022/07/12 02:16:11;;;;;;;3.25;1.58;;;;;;;20.89;33.68;99654.81;5012483;28;20058;-89
2022/07/12 02:18:37;;;;;;;3.10;1.45;;;;;;;21.02;33.75;99705.50;5012240;28;20497;-89
2022/07/12 02:21:02;;;;;;;2.67;1.60;;;;;;;20.42;33.80;99638.09;5012423;28;20566;-88
2022/07/12 02:23:28;;;;;;;2.85;1.70;;;;;;;21.20;34.05;99739.38;5011727;28;20483;-90
2022/07/12 02:25:53;;;;;;;2.08;1.63;;;;;;;21.11;34.29;99730.06;5012954;28;20033;-89
2022/07/12 02:28:18;;;;;;;1.75;1.50;;;;;;;21.36;34.30;99772.69;5011877;28;20032;-92
2022/07/12 02:30:44;;;;;;;1.92;1.70;;;;;;;20.80;34.24;99675.00;5013223;28;20096;-89
2022/07/12 02:33:10;;;;;;;1.60;1.50;;;;;;;21.10;34.01;99729.25;5012066;28;20026;-89
2022/07/12 02:35:35;;;;;;;2.92;1.80;;;;;;;21.60;33.73;99790.31;5012645;28;20029;-90
2022/07/12 02:38:01;;;;;;;2.17;1.52;;;;;;;21.46;34.02;99805.91;5011921;28;20126;-90
2022/07/12 02:43:10;;;;;;;1.92;1.60;;;;;;;21.47;34.06;99831.72;5013282;28;20766;-89
2022/07/12 02:45:35;;;;;;;2.20;2.00;;;;;;;21.56;34.05;99826.81;5028203;28;20025;-90
2022/07/12 02:48:01;;;;;;;2.22;1.70;;;;;;;21.06;34.11;99752.28;5011425;28;20105;-90
2022/07/12 02:50:27;;;;;;;2.42;1.85;;;;;;;21.18;34.21;99787.94;5011856;28;20164;-90
2022/07/12 02:52:53;;;;;;;2.42;1.77;;;;;;;21.32;34.43;99809.16;5011946;28;20062;-90
2022/07/12 02:55:18;;;;;;;3.65;1.90;;;;;;;20.28;34.65;99672.41;5011418;28;20380;-90
2022/07/12 02:57:43;;;;;;;2.65;1.85;;;;;;;20.70;34.67;99745.41;5011150;28;20050;-90
2022/07/12 03:00:09;;;;;;;2.03;1.75;;;;;;;21.13;34.87;99803.16;5012628;28;20033;-88
2022/07/12 03:02:35;;;;;;;2.10;1.90;;;;;;;21.33;34.88;99846.53;5012972;28;20022;-89
2022/07/12 03:05:00;;;;;;;2.63;1.90;;;;;;;21.34;34.74;99831.22;5028262;28;20460;-90
2022/07/12 03:07:26;;;;;;;2.20;1.90;;;;;;;21.28;34.79;99846.44;5011634;28;20049;-89
2022/07/12 03:09:51;;;;;;;3.45;2.28;;;;;;;20.67;34.97;99745.06;5011472;28;20116;-89
2022/07/12 03:12:17;;;;;;;3.30;2.17;;;;;;;20.87;35.34;99783.88;5011213;28;20085;-89
2022/07/12 03:14:42;;;;;;;2.78;2.30;;;;;;;20.31;35.12;99698.75;5012431;28;20022;-90
2022/07/12 03:17:08;;;;;;;2.35;1.88;;;;;;;20.52;35.35;99743.72;5015089;28;20025;-89
2022/07/12 03:19:33;;;;;;;4.00;2.08;;;;;;;20.78;35.30;99814.00;5015112;28;20410;-89
2022/07/12 03:21:58;;;;;;;3.17;1.83;;;;;;;20.34;35.23;99726.94;5015377;28;20113;-89
2022/07/12 03:24:24;;;;;;;3.70;1.77;;;;;;;20.99;35.32;99816.03;5015739;28;20097;-89
2022/07/12 03:26:51;;;;;;;4.03;2.00;;;;;;;20.61;35.29;99768.31;5015140;28;20022;-89
2022/07/12 03:29:16;;;;;;;4.18;2.00;;;;;;;21.02;35.28;99820.13;5015333;28;20569;-90
2022/07/12 03:31:41;;;;;;;2.03;1.70;;;;;;;20.89;35.20;99781.78;5015068;28;20026;-90
2022/07/12 03:34:07;;;;;;;3.53;1.65;;;;;;;20.29;35.14;99687.44;5015140;28;20021;-89
2022/07/12 03:36:32;;;;;;;3.28;1.98;;;;;;;20.70;35.10;99739.22;5015941;28;20057;-90
2022/07/12 03:38:58;;;;;;;3.80;2.05;;;;;;;20.86;35.17;99786.81;5022485;28;20030;-89
2022/07/12 03:41:23;;;;;;;2.42;1.75;;;;;;;20.71;35.34;99767.69;5017037;28;20029;-90
2022/07/12 03:43:49;;;;;;;3.25;2.15;;;;;;;21.07;35.34;99837.13;5015951;28;20026;-90
2022/07/12 03:46:14;;;;;;;3.25;2.53;;;;;;;20.83;35.49;99798.84;5014621;28;20018;-89
2022/07/12 03:48:40;;;;;;;1.95;1.75;;;;;;;20.45;35.66;99748.41;5015885;28;20482;-89
2022/07/12 03:51:05;;;;;;;3.25;2.17;;;;;;;20.61;35.81;99779.03;5016170;28;20025;-90
2022/07/12 03:53:31;;;;;;;3.53;2.10;;;;;;;21.23;35.95;99857.88;5014434;28;20083;-90
2022/07/12 03:55:56;;;;;;;2.05;1.88;;;;;;;20.69;35.85;99767.13;5016043;28;20029;-89
2022/07/12 03:58:21;;;;;;;2.85;1.80;;;;;;;20.43;35.99;99745.16;5025006;28;20022;-89
2022/07/12 04:00:47;;;;;;;3.17;2.10;;;;;;;20.43;35.96;99736.28;5033664;28;20006;-89
2022/07/12 04:03:12;;;;;;;3.47;2.10;;;;;;;20.45;36.18;99769.06;5028029;28;20022;-90
2022/07/12 04:05:38;;;;;;;6.20;2.42;;;;;;;20.62;36.37;99796.75;5017058;28;20387;-89
2022/07/12 04:08:04;;;;;;;5.53;2.17;;;;;;;21.05;36.40;99846.50;5014675;28;20509;-89
2022/07/12 04:10:32;;;;;;;2.97;1.98;;;;;;;20.40;36.20;99787.72;5014745;28;20029;-90
2022/07/12 04:12:58;;;;;;;3.17;2.40;;;;;;;20.88;36.56;99819.59;5013848;28;20041;-87
2022/07/12 04:15:23;;;;;;;4.22;2.30;;;;;;;20.78;36.68;99838.13;5013865;28;20475;-87
2022/07/12 04:17:48;;;;;;;2.95;2.08;;;;;;;21.02;36.85;99868.44;5013625;28;20026;-87
2022/07/12 04:20:14;;;;;;;7.60;2.55;;;;;;;21.04;36.39;99858.28;5014333;28;20029;-87
2022/07/12 04:22:39;;;;;;;2.35;2.00;;;;;;;21.04;36.61;99861.78;5013305;28;20108;-88
2022/07/12 04:25:09;;;;;;;4.80;2.33;;;;;;;20.46;36.41;99776.84;5013112;28;20022;-87
2022/07/12 04:27:35;;;;;;;2.15;1.83;;;;;;;20.75;36.35;99831.38;5014451;28;20097;-87
2022/07/12 04:30:00;;;;;;;1.95;1.77;;;;;;;20.47;36.22;99773.13;5013187;28;20049;-87
2022/07/12 04:32:25;;;;;;;4.32;2.20;;;;;;;20.83;36.18;99822.16;5014316;28;20033;-87
2022/07/12 04:34:51;;;;;;;5.38;2.28;;;;;;;20.67;35.97;99791.50;5013150;28;20081;-87
2022/07/12 04:37:16;;;;;;;2.63;2.17;;;;;;;21.10;36.09;99865.38;5014242;28;20404;-87
2022/07/12 04:39:42;;;;;;;5.05;4.05;;;;;;;20.76;36.15;99805.34;5013293;28;20410;-87
2022/07/12 04:42:07;;;;;;;5.07;2.92;;;;;;;20.38;36.16;99752.25;5013168;28;20032;-87
2022/07/12 04:44:33;;;;;;;7.90;3.63;;;;;;;19.67;36.25;99647.81;5012989;28;20070;-87
2022/07/12 04:46:58;;;;;;;6.03;2.90;;;;;;;21.28;36.27;99875.97;5013148;28;20029;-87
2022/07/12 04:49:23;;;;;;;2.95;2.45;;;;;;;20.59;36.45;99770.41;5014200;28;20022;-87
2022/07/12 04:51:49;;;;;;;2.45;2.15;;;;;;;20.85;36.32;99815.50;5012907;28;20485;-87
2022/07/12 04:54:14;;;;;;;3.45;2.30;;;;;;;20.54;36.18;99759.59;5013452;28;20030;-87
2022/07/12 04:56:40;;;;;;;4.63;2.97;;;;;;;21.43;36.51;99883.50;5012711;28;20077;-87
2022/07/12 04:59:05;;;;;;;2.97;2.55;;;;;;;20.89;36.42;99800.56;5014268;28;20025;-87
2022/07/12 05:01:32;;;;;;;3.38;2.20;;;;;;;21.41;36.50;99891.78;5014470;28;20143;-87
2022/07/12 05:03:58;;;;;;;3.20;2.00;;;;;;;20.97;36.64;99833.44;5013244;28;20029;-87
2022/07/12 05:06:24;;;;;;;4.45;2.83;;;;;;;21.40;36.68;99895.53;5013332;28;20107;-87
2022/07/12 05:08:50;;;;;;;3.70;1.98;;;;;;;20.21;37.01;99695.84;5025049;28;20030;-86
2022/07/12 05:11:15;;;;;;;4.53;1.92;;;;;;;21.30;36.76;99867.66;5031311;28;20024;-87
2022/07/12 05:13:40;;;;;;;5.18;2.30;;;;;;;21.12;36.74;99834.56;5029696;28;20171;-87
2022/07/12 05:16:07;;;;;;;3.65;2.38;;;;;;;21.02;36.62;99812.06;5027494;28;20111;-87
2022/07/12 05:18:34;;;;;;;3.75;2.00;;;;;;;21.64;36.81;99898.13;5012789;28;20076;-87
2022/07/12 05:20:59;;;;;;;2.83;1.92;;;;;;;20.75;36.71;99755.44;5026076;28;20083;-88
2022/07/12 05:23:24;;;;;;;3.40;2.40;;;;;;;21.31;36.62;99848.63;5032335;28;20021;-88
2022/07/12 05:25:50;;;;;;;3.10;2.22;;;;;;;21.23;36.86;99833.72;5032346;28;20132;-88
2022/07/12 05:28:16;;;;;;;3.38;2.20;;;;;;;21.67;36.26;99889.59;5032069;28;20565;-88
2022/07/12 05:30:42;;;;;;;7.25;2.60;;;;;;;20.60;36.20;99716.53;5021908;28;20034;-88
2022/07/12 05:33:08;;;;;;;3.45;2.10;;;;;;;21.38;36.10;99835.88;5013685;28;20022;-88
2022/07/12 05:35:33;;;;;;;5.43;2.08;;;;;;;21.10;35.57;99798.25;5012469;28;20517;-87
2022/07/12 05:37:59;;;;;;;2.78;1.85;;;;;;;21.28;35.56;99840.25;5011445;28;20018;-88
2022/07/12 05:40:24;;;;;;;10.77;2.08;;;;;;;21.49;35.39;99852.97;5015569;28;20057;-88
2022/07/12 05:42:51;;;;;;;1.95;1.75;;;;;;;20.97;35.37;99755.59;5030078;28;20116;-88
2022/07/12 05:45:16;;;;;;;2.67;1.77;;;;;;;21.11;35.59;99783.78;5033386;28;20033;-88
2022/07/12 05:47:42;;;;;;;4.63;2.90;;;;;;;21.48;35.59;99824.47;5030817;28;20047;-87
2022/07/12 05:50:08;;;;;;;2.95;2.33;;;;;;;21.25;35.29;99803.94;5022931;28;20029;-88
2022/07/12 05:55:18;;;;;;;3.83;2.30;;;;;;;21.97;35.16;99895.50;5020734;28;20040;-87
2022/07/12 05:57:43;;;;;;;4.70;2.40;;;;;;;21.76;35.05;99863.94;5016531;28;20042;-87
2022/07/12 06:00:09;;;;;;;2.40;1.70;;;;;;;21.53;34.76;99825.38;5021213;28;20026;-88
2022/07/12 06:02:35;;;;;;;5.32;1.80;;;;;;;21.71;34.55;99843.19;5032527;28;20045;-87
2022/07/12 06:05:03;;;;;;;3.67;1.80;;;;;;;21.53;34.17;99790.47;5021748;28;20056;-88
2022/07/12 06:07:31;;;;;;;3.50;2.00;;;;;;;21.58;34.15;99810.44;5031984;28;20029;-91
2022/07/12 06:09:56;;;;;;;5.25;2.05;;;;;;;22.16;34.00;99901.47;5034114;28;20068;-90
2022/07/12 06:12:22;;;;;;;2.80;1.80;;;;;;;22.28;34.07;99904.88;5023571;28;20060;-90
2022/07/12 06:14:48;;;;;;;5.53;2.10;;;;;;;21.54;34.18;99778.66;5029133;28;20025;-90
2022/07/12 06:17:13;;;;;;;4.55;1.90;;;;;;;22.08;34.17;99856.16;5039105;28;20021;-90
2022/07/12 06:19:39;;;;;;;3.53;2.10;;;;;;;22.11;34.39;99853.78;5012172;28;20550;-90
2022/07/12 06:22:04;;;;;;;7.03;5.22;;;;;;;22.13;34.38;99834.72;5047769;28;20063;-89
2022/07/12 06:24:29;;;;;;;5.03;2.95;;;;;;;22.10;34.28;99805.63;5053098;28;20109;-89
2022/07/12 06:26:55;;;;;;;3.47;1.92;;;;;;;22.12;34.17;99807.00;5052117;28;20024;-90
2022/07/12 06:29:20;;;;;;;3.25;2.10;;;;;;;22.06;34.02;99805.31;5033076;28;20029;-90
2022/07/12 06:31:46;;;;;;;4.10;2.13;;;;;;;22.81;33.85;99900.84;5019452;28;20172;-90
2022/07/12 06:34:14;;;;;;;6.00;3.55;;;;;;;22.72;33.92;99857.38;5016149;28;20033;-89
2022/07/12 06:36:43;;;;;;;4.72;3.28;;;;;;;21.81;33.74;99721.56;5024547;28;20061;-89
2022/07/12 06:39:09;;;;;;;5.43;2.92;;;;;;;22.91;33.49;99849.00;5032219;28;20601;-91
2022/07/12 06:41:34;;;;;;;6.30;2.75;;;;;;;22.07;32.82;99717.38;5037270;28;20029;-89
2022/07/12 06:43:59;;;;;;;2.65;1.60;;;;;;;23.19;32.40;99902.69;5031440;28;20036;-89
2022/07/12 06:46:25;;;;;;;2.47;1.63;;;;;;;22.70;32.25;99794.06;5028763;28;20029;-90
2022/07/12 06:48:50;;;;;;;5.15;2.38;;;;;;;22.37;32.05;99751.97;5018269;28;20048;-89
2022/07/12 06:51:15;;;;;;;4.03;2.15;;;;;;;22.60;31.95;99775.94;5019818;28;20014;-90
2022/07/12 06:53:41;;;;;;;4.45;1.70;;;;;;;22.34;32.00;99742.53;5016477;28;20034;-90
2022/07/12 06:56:07;;;;;;;4.07;1.70;;;;;;;23.29;31.62;99891.22;5027382;28;20073;-89
2022/07/12 06:58:32;;;;;;;3.53;1.77;;;;;;;23.02;31.52;99853.44;5032964;28;20017;-90
2022/07/12 07:00:57;;;;;;;6.80;2.35;;;;;;;22.29;31.38;99739.72;5033169;28;20033;-90
2022/07/12 07:03:23;;;;;;;5.72;2.10;;;;;;;22.06;31.31;99678.94;5034440;28;20025;-90
2022/07/12 07:05:48;;;;;;;4.03;2.75;;;;;;;23.25;31.30;99861.28;5022056;28;20025;-90
2022/07/12 07:08:14;;;;;;;2.88;1.58;;;;;;;23.04;31.07;99805.56;5035391;28;20045;-89
2022/07/12 07:10:39;;;;;;;3.58;1.80;;;;;;;22.95;30.86;99804.34;5031736;28;20028;-89
2022/07/12 07:13:04;;;;;;;5.68;3.17;;;;;;;23.29;30.49;99838.16;5034299;28;20036;-90
2022/07/12 07:15:30;;;;;;;3.00;1.20;;;;;;;23.61;30.65;99894.00;5024540;28;20030;-89
2022/07/12 07:17:56;;;;;;;5.00;1.80;;;;;;;23.06;30.74;99798.03;5038607;28;20112;-88
2022/07/12 07:20:22;;;;;;;3.78;2.20;;;;;;;23.48;30.53;99878.22;5026528;28;20114;-89
2022/07/12 07:22:47;;;;;;;3.70;2.20;;;;;;;23.30;30.46;99818.22;5026764;28;20093;-90
2022/07/12 07:25:13;;;;;;;5.60;2.53;;;;;;;23.13;30.40;99826.41;5043144;28;20049;-90
2022/07/12 07:27:38;;;;;;;2.78;1.42;;;;;;;23.17;30.33;99809.72;5039688;28;20029;-90
2022/07/12 07:32:48;;;;;;;5.53;3.00;;;;;;;23.90;29.99;99887.28;5025283;28;20029;-91
2022/07/12 07:35:14;;;;;;;4.70;2.35;;;;;;;23.62;29.98;99820.16;5046927;28;20025;-90
2022/07/12 07:37:39;;;;;;;3.03;1.67;;;;;;;23.58;30.03;99810.94;5042300;28;20429;-92
2022/07/12 07:40:05;;;;;;;3.38;2.17;;;;;;;24.21;29.61;99879.44;5056256;28;20489;-92
2022/07/12 07:42:31;;;;;;;3.53;2.25;;;;;;;23.93;29.57;99816.66;5024114;28;20025;-90
2022/07/12 07:44:56;;;;;;;3.33;1.55;;;;;;;23.54;29.13;99761.28;5027029;28;20026;-89
2022/07/12 07:47:21;;;;;;;2.88;2.60;;;;;;;23.71;29.02;99794.34;5025856;28;20417;-91
2022/07/12 07:49:47;;;;;;;4.38;1.58;;;;;;;24.16;28.81;99869.41;5031653;28;20112;-88
2022/07/12 07:52:12;;;;;;;4.00;1.98;;;;;;;24.09;28.66;99837.25;5034496;28;20039;-89
2022/07/12 07:54:38;;;;;;;3.95;1.48;;;;;;;24.37;28.92;99892.78;5034306;28;20028;-89
2022/07/12 07:57:03;;;;;;;3.20;1.38;;;;;;;24.32;28.61;99862.25;5034926;28;20045;-89
2022/07/12 07:59:29;;;;;;;3.85;1.75;;;;;;;23.62;28.88;99742.78;5022052;28;20029;-89
2022/07/12 08:01:54;;;;;;;5.75;1.95;;;;;;;24.63;28.91;99877.59;5019442;28;20446;-89
2022/07/12 08:04:21;;;;;;;4.53;2.15;;;;;;;24.69;28.69;99857.63;5025861;28;20049;-88
2022/07/12 08:06:49;;;;;;;2.15;1.40;;;;;;;24.33;28.51;99815.31;5027069;28;20421;-89
2022/07/12 08:09:14;;;;;;;3.63;2.00;;;;;;;24.70;28.46;99874.66;5015290;28;20034;-89
2022/07/12 08:11:41;;;;;;;4.55;1.80;;;;;;;24.28;28.26;99774.81;5016255;28;20052;-89
2022/07/12 08:14:07;;;;;;;7.22;2.53;;;;;;;24.83;28.28;99873.34;5038370;28;20043;-90
2022/07/12 08:16:34;;;;;;;4.28;1.58;;;;;;;24.86;28.18;99853.94;5031930;28;20021;-90
2022/07/12 08:19:00;;;;;;;2.92;1.50;;;;;;;24.38;27.89;99766.75;5022685;28;20030;-89
2022/07/12 08:21:26;;;;;;;4.50;1.70;;;;;;;24.69;27.50;99821.72;5020487;28;20034;-90
2022/07/12 08:23:52;;;;;;;3.15;1.30;;;;;;;23.94;27.54;99686.13;5014442;28;20113;-89
2022/07/12 08:26:19;;;;;;;2.75;1.10;;;;;;;24.18;27.48;99701.88;5015441;28;20101;-90
2022/07/12 08:28:44;;;;;;;2.28;1.05;;;;;;;25.14;26.86;99872.44;5014909;28;20033;-89
2022/07/12 08:31:13;;;;;;;3.20;1.23;;;;;;;24.35;27.21;99735.72;5013827;28;20479;-90
2022/07/12 08:33:39;;;;;;;3.88;1.50;;;;;;;24.66;27.14;99787.16;5014145;28;20066;-90
2022/07/12 08:36:04;;;;;;;6.90;1.38;;;;;;;25.31;26.93;99856.00;5012734;28;20029;-89
2022/07/12 08:38:31;;;;;;;2.67;1.50;;;;;;;25.42;26.81;99852.25;5013626;28;20026;-89
2022/07/12 08:40:57;;;;;;;2.88;1.50;;;;;;;25.52;27.34;99846.03;5014714;28;20469;-89
2022/07/12 08:43:23;;;;;;;4.90;2.00;;;;;;;25.70;26.80;99861.78;5020441;28;20037;-90
2022/07/12 08:45:48;;;;;;;2.85;1.20;;;;;;;25.03;26.01;99760.81;5013879;28;20172;-89
2022/07/12 08:48:15;;;;;;;5.35;2.00;;;;;;;24.77;26.29;99704.28;5013623;28;20410;-89
2022/07/12 08:50:40;;;;;;;5.88;2.20;;;;;;;25.61;26.65;99803.88;5014576;28;20034;-90
2022/07/12 08:53:10;;;;;;;3.33;1.55;;;;;;;25.87;26.33;99842.56;5029076;28;20391;-90
2022/07/12 08:55:36;;;;;;;2.70;2.30;;;;;;;25.68;26.10;99795.50;5030363;28;20025;-89
2022/07/12 08:58:06;;;;;;;3.90;1.45;;;;;;;25.25;25.31;99709.22;5013112;28;20054;-89
2022/07/12 09:00:32;;;;;;;2.90;1.75;;;;;;;26.15;25.06;99846.63;5013742;28;20030;-89
2022/07/12 09:03:00;;;;;;;4.93;2.45;;;;;;;26.27;24.95;99837.13;5013936;28;20105;-89
2022/07/12 09:05:27;;;;;;;2.45;1.10;;;;;;;25.88;24.31;99763.84;5017142;28;20021;-89
2022/07/12 09:08:10;;;;;;;2.20;1.20;;;;;;;25.88;24.27;99755.72;5030092;28;20017;-88
2022/07/12 09:10:52;;;;;;;1.52;1.00;;;;;;;26.21;24.43;99769.75;5013005;28;20041;-89
2022/07/12 09:13:18;;;;;;;2.15;1.20;;;;;;;26.07;24.71;99722.69;5023585;28;20036;-89
2022/07/12 09:15:46;;;;;;;2.97;1.40;;;;;;;26.60;24.81;99783.44;5023308;28;20022;-88
2022/07/12 09:18:25;;;;;;;6.45;2.50;;;;;;;27.04;24.66;99835.03;5012421;28;20097;-89
2022/07/12 09:20:52;;;;;;;3.13;1.60;;;;;;;27.22;24.51;99814.59;5012807;28;20554;-89
2022/07/12 09:23:18;;;;;;;2.00;1.33;;;;;;;27.38;23.87;99818.00;5012670;28;20048;-90
2022/07/12 09:25:45;;;;;;;2.88;1.35;;;;;;;26.79;23.52;99700.47;5013101;28;20037;-89
2022/07/12 09:28:11;;;;;;;1.63;1.08;;;;;;;27.55;23.15;99788.63;5029038;28;20029;-90
2022/07/12 09:30:46;;;;;;;2.60;1.10;;;;;;;27.95;22.97;99809.19;5013204;28;20026;-90
2022/07/12 09:36:07;;;;;;;2.67;1.48;;;;;;;28.37;22.71;99819.38;5030654;28;20032;-87
2022/07/12 09:38:37;;;;;;;3.00;1.40;;;;;;;27.93;22.07;99721.81;5020266;28;20022;-90
2022/07/12 09:41:04;;;;;;;3.78;2.80;;;;;;;28.51;22.18;99786.09;5013511;28;20041;-89
2022/07/12 09:43:30;;;;;;;3.83;1.98;;;;;;;28.77;21.69;99823.53;5012856;28;20111;-89
2022/07/12 09:45:56;;;;;;;3.10;1.55;;;;;;;27.42;21.47;99611.06;5022674;28;20029;-90
2022/07/12 09:48:22;;;;;;;3.67;1.30;;;;;;;27.47;20.74;99621.06;5029944;28;20026;-90
2022/07/12 09:50:51;;;;;;;2.72;1.13;;;;;;;29.06;20.79;99799.00;5013132;28;20125;-89
2022/07/12 09:53:26;;;;;;;2.25;1.20;;;;;;;29.10;21.18;99802.75;5033318;28;20060;-89
2022/07/12 09:55:52;;;;;;;2.78;1.13;;;;;;;27.40;21.59;99501.28;5020760;28;20120;-89
2022/07/12 09:58:25;;;;;;;5.13;1.40;;;;;;;28.93;20.92;99699.13;5012740;28;20030;-88
2022/07/12 10:00:53;;;;;;;2.30;0.90;;;;;;;29.62;20.79;99784.53;5015615;28;20084;-90
2022/07/12 10:03:25;;;;;;;1.85;1.40;;;;;;;29.51;20.68;99752.38;5032181;28;20055;-89
2022/07/12 10:05:52;;;;;;;2.63;1.10;;;;;;;29.48;20.62;99720.31;5033639;28;20031;-89
2022/07/12 10:08:20;;;;;;;3.92;1.10;;;;;;;29.38;20.42;99684.00;5038387;28;20029;-90
2022/07/12 10:10:47;;;;;;;1.65;0.98;;;;;;;29.98;20.31;99749.34;5035727;28;20026;-89
2022/07/12 10:13:13;;;;;;;4.57;3.05;;;;;;;29.62;20.55;99677.63;5034311;28;20051;-89
2022/07/12 10:15:43;;;;;;;4.65;1.40;;;;;;;29.86;19.98;99704.69;5039508;28;20021;-90
2022/07/12 10:18:15;;;;;;;3.28;2.10;;;;;;;29.52;19.55;99616.03;5032492;28;20407;-89
2022/07/12 10:20:45;;;;;;;4.20;1.60;;;;;;;30.30;19.29;99745.75;5031725;28;20117;-89
2022/07/12 10:23:19;;;;;;;1.73;1.20;;;;;;;30.59;19.56;99780.09;5015867;28;20022;-89
2022/07/12 10:25:47;;;;;;;3.35;2.40;;;;;;;29.37;19.57;99583.66;5027826;28;20058;-90
2022/07/12 10:28:12;;;;;;;3.00;1.67;;;;;;;30.59;19.59;99745.47;5029343;28;20030;-89
2022/07/12 10:30:44;;;;;;;3.22;1.92;;;;;;;30.00;19.30;99646.41;5028950;28;20030;-90
2022/07/12 10:33:19;;;;;;;;;;;;;;;31.03;18.61;99768.50;5031916;28;20080;-90
2022/07/12 10:35:59;;;;;;;2.40;1.50;;;;;;;31.06;19.19;99734.34;5034016;28;19913;-89
2022/07/12 10:38:25;;;;;;;1.70;1.40;;;;;;;30.48;19.06;99666.94;5033417;28;20405;-90
2022/07/12 10:40:51;;;;;;;3.28;1.20;;;;;;;31.26;19.08;99753.00;5032251;28;20034;-90
2022/07/12 10:46:24;;;;;;;5.22;2.95;;;;;;;31.35;19.17;99756.59;5019922;28;20045;-90
2022/07/12 10:48:50;;;;;;;4.78;2.10;;;;;;;31.45;19.15;99734.50;5017495;28;20565;-91
2022/07/12 10:51:21;;;;;;;4.05;1.33;;;;;;;31.22;19.23;99711.91;5013963;28;20022;-92
2022/07/12 10:53:48;;;;;;;3.78;2.70;;;;;;;30.92;19.17;99604.31;5022451;28;20544;-90
2022/07/12 10:56:15;;;;;;;2.38;1.08;;;;;;;32.09;19.07;99748.69;5031831;28;20056;-91
2022/07/12 10:58:46;;;;;;;2.42;1.35;;;;;;;31.09;19.11;99608.25;5031208;28;20025;-90
2022/07/12 11:01:20;;;;;;;2.63;1.20;;;;;;;31.24;18.53;99569.72;5031786;28;20049;-91
2022/07/12 11:03:47;;;;;;;3.40;1.15;;;;;;;32.29;18.77;99750.09;5032067;28;20033;-91
2022/07/12 11:06:37;;;;;;;2.97;1.80;;;;;;;32.36;18.68;99722.28;5030422;28;20036;-90
2022/07/12 11:09:06;;;;;;;3.22;1.70;;;;;;;31.84;18.62;99631.94;5015287;28;20026;-90
2022/07/12 11:11:48;;;;;;;3.47;1.38;;;;;;;32.23;17.58;99686.56;5013127;28;20026;-89
2022/07/12 11:14:32;;;;;;;2.13;0.90;;;;;;;32.17;17.80;99651.50;5028428;28;20030;-90
2022/07/12 11:16:59;;;;;;;2.90;2.10;;;;;;;32.89;17.99;99718.53;5035746;28;20493;-91
2022/07/12 11:19:26;;;;;;;4.10;1.10;;;;;;;33.14;17.47;99745.09;5011209;28;20018;-90
2022/07/12 11:21:56;;;;;;;3.28;1.60;;;;;;;32.62;17.33;99698.53;5014360;28;20514;-90
2022/07/12 11:24:23;;;;;;;3.30;1.60;;;;;;;32.79;17.04;99717.75;5013837;28;20033;-89
2022/07/12 11:26:49;;;;;;;3.53;1.33;;;;;;;32.90;16.76;99733.84;5020882;28;20529;-89
2022/07/12 11:29:17;;;;;;;2.08;0.90;;;;;;;32.47;16.98;99672.47;5020652;28;20064;-89
2022/07/12 11:31:43;;;;;;;1.77;1.10;;;;;;;32.63;16.40;99670.06;5019621;28;20461;-88
2022/07/12 11:34:23;;;;;;;3.65;2.65;;;;;;;32.93;16.25;99697.63;5014691;28;20089;-89
2022/07/12 11:37:01;;;;;;;2.70;1.85;;;;;;;32.76;16.14;99619.09;5032004;28;20193;-89
2022/07/12 11:39:40;;;;;;;2.22;1.00;;;;;;;32.25;16.02;99532.44;5048319;28;20017;-88
2022/07/12 11:42:07;;;;;;;3.17;1.90;;;;;;;33.74;16.39;99727.78;5055332;28;20021;-89
2022/07/12 11:44:50;;;;;;;3.58;1.90;;;;;;;33.18;16.15;99612.78;5054837;28;20047;-91
2022/07/12 11:47:17;;;;;;;2.92;1.88;;;;;;;33.69;16.42;99678.66;5055135;28;20024;-89